SKCGSKVP

Guest
Details From SKCG - RAFAEL NUNEZ
To SKVP - ALFONSO LOPEZ PUMAREJO
Flight Number -
Tags generated
Created
Modified
Stats Distance 134 nm / 248 km
Max Altitude 13,900 ft / 4,237 m
Waypoints 3
Social Downloads 7
Likes 0
Share VATSIM

Download

Looking for another format? Having issues loading an existing format? Contact us
Advertisement - Login to hide

Notes

Basic altitude profile: - Ascent Rate: 2500ft/min - Ascent Speed: 250kts - Cruise Altitude: 35000ft - Cruise Speed: 420kts - Descent Rate: 1500ft/min - Descent Speed: 250kts Options: - Use NATs: yes - Use PACOTS: yes - Use low airways: yes - Use high airways: yes

Route

SKCG BARRA SKVP

ID Type Via Altitude Latitude Longitude Leg Dist Tot Dist Heading (true) Name
O SKCG APT - 0 ft / 0 m 10.44238˚ -75.51296˚ - 0 nm - RAFAEL NUNEZ
BARRA FIX - 13,900 ft / 4,237 m 10.43972˚ -74.42722˚ 64 nm 64 nm 90° / 90° -
O SKVP APT - 0 ft / 0 m 10.43504˚ -73.24951˚ 69 nm 133 nm 90° / 90° ALFONSO LOPEZ PUMAREJO

Altitude Profile

Advertisement - Login to hide

SKCG

Details ICAO SKCG (CTG)
Name RAFAEL NUNEZ
Region Colombia
Timezone America/Bogota (UTC-5.0)
Stats Elevation 4 ft / 1 m (AMSL)
Location 10.442379° -75.512961°
Runways 1
Magnetic Variation 7.206° W

METAR

SKCG 172000Z 31003KT 280V360 9999 FEW020 32/23 A2975

Decode

TAF

Not found

Departure Runways

ID Width Length Bearing (true) Bearing (mag) Surface Threshold Offset Overrun Length
01 148 ft / 45 m 8,584 ft / 2,616 m 2.31° 9.52° Asphalt 0 ft / 0 m 180 ft / 55 m
19 148 ft / 45 m 8,584 ft / 2,616 m 182.31° 189.52° Asphalt 190 ft / 58 m 0 ft / 0 m

SKVP

Details ICAO SKVP (VUP)
Name ALFONSO LOPEZ PUMAREJO
Region Colombia
Timezone America/Bogota (UTC-5.0)
Stats Elevation 456 ft / 139 m (AMSL)
Location 10.435040° -73.249505°
Runways 1
Magnetic Variation 8.618° W

METAR

SKVP 172000Z 03023KT 9999 FEW025 35/15 A2978

Decode

TAF

Not found

Destination Runways

ID Width Length Bearing (true) Bearing (mag) Surface Threshold Offset Overrun Length
02 98 ft / 30 m 6,906 ft / 2,105 m 9.45° 18.07° Asphalt 0 ft / 0 m 0 ft / 0 m
20 98 ft / 30 m 6,906 ft / 2,105 m 189.45° 198.07° Asphalt 0 ft / 0 m 0 ft / 0 m